sensor_id;sensor_type;location;lat;lon;timestamp;P1;durP1;ratioP1;P2;durP2;ratioP2
19280;SDS011;9774;52.034;5.342;2023-08-12T00:00:57;3.30;;;1.75;;
19280;SDS011;9774;52.034;5.342;2023-08-12T00:03:25;2.17;;;1.73;;
19280;SDS011;9774;52.034;5.342;2023-08-12T00:05:52;2.45;;;2.00;;
19280;SDS011;9774;52.034;5.342;2023-08-12T00:08:21;3.58;;;1.70;;
19280;SDS011;9774;52.034;5.342;2023-08-12T00:10:48;2.30;;;1.40;;
19280;SDS011;9774;52.034;5.342;2023-08-12T00:13:15;3.35;;;2.30;;
19280;SDS011;9774;52.034;5.342;2023-08-12T00:15:44;3.33;;;2.47;;
19280;SDS011;9774;52.034;5.342;2023-08-12T00:18:11;3.50;;;2.33;;
19280;SDS011;9774;52.034;5.342;2023-08-12T00:20:38;3.40;;;2.63;;
19280;SDS011;9774;52.034;5.342;2023-08-12T00:23:05;6.13;;;2.33;;
19280;SDS011;9774;52.034;5.342;2023-08-12T00:25:32;4.47;;;2.78;;
19280;SDS011;9774;52.034;5.342;2023-08-12T00:27:59;3.50;;;2.40;;
19280;SDS011;9774;52.034;5.342;2023-08-12T00:30:26;4.38;;;2.25;;
19280;SDS011;9774;52.034;5.342;2023-08-12T00:32:54;4.10;;;2.30;;
19280;SDS011;9774;52.034;5.342;2023-08-12T00:35:21;3.22;;;2.10;;
19280;SDS011;9774;52.034;5.342;2023-08-12T00:37:48;3.75;;;2.63;;
19280;SDS011;9774;52.034;5.342;2023-08-12T00:40:15;5.28;;;2.85;;
19280;SDS011;9774;52.034;5.342;2023-08-12T00:42:42;4.18;;;2.75;;
19280;SDS011;9774;52.034;5.342;2023-08-12T00:45:10;4.50;;;2.78;;
19280;SDS011;9774;52.034;5.342;2023-08-12T00:47:38;5.70;;;2.50;;
19280;SDS011;9774;52.034;5.342;2023-08-12T00:50:07;2.72;;;2.45;;
19280;SDS011;9774;52.034;5.342;2023-08-12T00:52:39;5.53;;;2.60;;
19280;SDS011;9774;52.034;5.342;2023-08-12T00:55:07;3.38;;;2.13;;
19280;SDS011;9774;52.034;5.342;2023-08-12T00:57:34;5.55;;;2.67;;
19280;SDS011;9774;52.034;5.342;2023-08-12T01:00:02;3.53;;;2.90;;
19280;SDS011;9774;52.034;5.342;2023-08-12T01:02:30;3.58;;;2.50;;
19280;SDS011;9774;52.034;5.342;2023-08-12T01:04:57;4.40;;;2.63;;
19280;SDS011;9774;52.034;5.342;2023-08-12T01:07:26;3.60;;;2.63;;
19280;SDS011;9774;52.034;5.342;2023-08-12T01:09:53;3.70;;;2.53;;
19280;SDS011;9774;52.034;5.342;2023-08-12T01:12:23;8.30;;;3.13;;
19280;SDS011;9774;52.034;5.342;2023-08-12T01:14:56;3.25;;;2.40;;
19280;SDS011;9774;52.034;5.342;2023-08-12T01:17:33;4.35;;;2.60;;
19280;SDS011;9774;52.034;5.342;2023-08-12T01:20:04;3.00;;;2.17;;
19280;SDS011;9774;52.034;5.342;2023-08-12T01:22:37;3.13;;;2.38;;
19280;SDS011;9774;52.034;5.342;2023-08-12T01:25:08;4.18;;;2.97;;
19280;SDS011;9774;52.034;5.342;2023-08-12T01:27:35;3.85;;;2.58;;
19280;SDS011;9774;52.034;5.342;2023-08-12T01:30:03;4.45;;;2.92;;
19280;SDS011;9774;52.034;5.342;2023-08-12T01:32:37;4.97;;;2.67;;
19280;SDS011;9774;52.034;5.342;2023-08-12T01:35:13;5.70;;;3.17;;
19280;SDS011;9774;52.034;5.342;2023-08-12T01:37:47;3.35;;;2.88;;
19280;SDS011;9774;52.034;5.342;2023-08-12T01:40:19;4.63;;;2.65;;
19280;SDS011;9774;52.034;5.342;2023-08-12T01:42:47;6.10;;;3.00;;
19280;SDS011;9774;52.034;5.342;2023-08-12T01:45:14;4.60;;;2.92;;
19280;SDS011;9774;52.034;5.342;2023-08-12T01:47:43;4.78;;;3.50;;
19280;SDS011;9774;52.034;5.342;2023-08-12T01:50:10;4.35;;;3.35;;
19280;SDS011;9774;52.034;5.342;2023-08-12T01:52:37;5.32;;;3.42;;
19280;SDS011;9774;52.034;5.342;2023-08-12T01:55:04;5.70;;;3.40;;
19280;SDS011;9774;52.034;5.342;2023-08-12T01:57:33;4.60;;;3.40;;
19280;SDS011;9774;52.034;5.342;2023-08-12T02:00:00;3.53;;;3.05;;
19280;SDS011;9774;52.034;5.342;2023-08-12T02:02:29;6.05;;;3.60;;
19280;SDS011;9774;52.034;5.342;2023-08-12T02:04:56;7.78;;;3.67;;
19280;SDS011;9774;52.034;5.342;2023-08-12T02:07:23;5.13;;;3.92;;
19280;SDS011;9774;52.034;5.342;2023-08-12T02:09:50;6.65;;;3.70;;
19280;SDS011;9774;52.034;5.342;2023-08-12T02:12:17;8.00;;;4.47;;
19280;SDS011;9774;52.034;5.342;2023-08-12T02:14:45;7.13;;;3.85;;
19280;SDS011;9774;52.034;5.342;2023-08-12T02:17:12;4.55;;;3.75;;
19280;SDS011;9774;52.034;5.342;2023-08-12T02:19:39;6.40;;;3.97;;
19280;SDS011;9774;52.034;5.342;2023-08-12T02:22:06;4.35;;;3.95;;
19280;SDS011;9774;52.034;5.342;2023-08-12T02:24:35;6.32;;;4.25;;
19280;SDS011;9774;52.034;5.342;2023-08-12T02:27:02;6.15;;;3.65;;
19280;SDS011;9774;52.034;5.342;2023-08-12T02:29:29;6.93;;;3.85;;
19280;SDS011;9774;52.034;5.342;2023-08-12T02:31:58;5.55;;;4.22;;
19280;SDS011;9774;52.034;5.342;2023-08-12T02:34:25;6.40;;;4.65;;
19280;SDS011;9774;52.034;5.342;2023-08-12T02:36:52;6.18;;;4.50;;
19280;SDS011;9774;52.034;5.342;2023-08-12T02:39:19;7.82;;;4.57;;
19280;SDS011;9774;52.034;5.342;2023-08-12T02:41:45;6.95;;;4.28;;
19280;SDS011;9774;52.034;5.342;2023-08-12T02:44:13;5.85;;;4.30;;
19280;SDS011;9774;52.034;5.342;2023-08-12T02:46:40;5.07;;;3.75;;
19280;SDS011;9774;52.034;5.342;2023-08-12T02:49:09;7.72;;;4.68;;
19280;SDS011;9774;52.034;5.342;2023-08-12T02:51:36;4.00;;;3.38;;
19280;SDS011;9774;52.034;5.342;2023-08-12T02:54:03;5.97;;;4.88;;
19280;SDS011;9774;52.034;5.342;2023-08-12T02:56:30;5.75;;;4.20;;
19280;SDS011;9774;52.034;5.342;2023-08-12T02:58:57;6.68;;;4.90;;
19280;SDS011;9774;52.034;5.342;2023-08-12T03:01:24;5.20;;;4.35;;
19280;SDS011;9774;52.034;5.342;2023-08-12T03:03:52;6.13;;;4.68;;
19280;SDS011;9774;52.034;5.342;2023-08-12T03:06:21;5.95;;;4.50;;
19280;SDS011;9774;52.034;5.342;2023-08-12T03:08:48;6.50;;;4.22;;
19280;SDS011;9774;52.034;5.342;2023-08-12T03:11:15;6.57;;;4.68;;
19280;SDS011;9774;52.034;5.342;2023-08-12T03:13:43;5.28;;;4.00;;
19280;SDS011;9774;52.034;5.342;2023-08-12T03:16:11;6.38;;;4.63;;
19280;SDS011;9774;52.034;5.342;2023-08-12T03:18:39;7.22;;;4.45;;
19280;SDS011;9774;52.034;5.342;2023-08-12T03:21:07;5.97;;;4.20;;
19280;SDS011;9774;52.034;5.342;2023-08-12T03:23:36;4.95;;;3.80;;
19280;SDS011;9774;52.034;5.342;2023-08-12T03:26:04;4.90;;;4.40;;
19280;SDS011;9774;52.034;5.342;2023-08-12T03:28:31;6.60;;;4.70;;
19280;SDS011;9774;52.034;5.342;2023-08-12T03:30:58;6.13;;;4.53;;
19280;SDS011;9774;52.034;5.342;2023-08-12T03:33:25;5.30;;;4.43;;
19280;SDS011;9774;52.034;5.342;2023-08-12T03:35:52;6.50;;;3.88;;
19280;SDS011;9774;52.034;5.342;2023-08-12T03:38:19;5.00;;;3.75;;
19280;SDS011;9774;52.034;5.342;2023-08-12T03:40:47;9.52;;;5.00;;
19280;SDS011;9774;52.034;5.342;2023-08-12T03:43:15;6.18;;;4.07;;
19280;SDS011;9774;52.034;5.342;2023-08-12T03:45:43;6.40;;;3.90;;
19280;SDS011;9774;52.034;5.342;2023-08-12T03:48:11;7.35;;;4.70;;
19280;SDS011;9774;52.034;5.342;2023-08-12T03:50:38;5.88;;;4.35;;
19280;SDS011;9774;52.034;5.342;2023-08-12T03:53:07;6.43;;;4.22;;
19280;SDS011;9774;52.034;5.342;2023-08-12T03:55:34;6.88;;;4.00;;
19280;SDS011;9774;52.034;5.342;2023-08-12T03:58:03;6.68;;;4.32;;
19280;SDS011;9774;52.034;5.342;2023-08-12T04:00:30;8.50;;;4.38;;
19280;SDS011;9774;52.034;5.342;2023-08-12T04:02:57;5.68;;;4.22;;
19280;SDS011;9774;52.034;5.342;2023-08-12T04:05:24;4.50;;;3.83;;
19280;SDS011;9774;52.034;5.342;2023-08-12T04:07:51;5.45;;;3.70;;
19280;SDS011;9774;52.034;5.342;2023-08-12T04:10:18;5.13;;;4.50;;
19280;SDS011;9774;52.034;5.342;2023-08-12T04:12:45;6.65;;;5.00;;
19280;SDS011;9774;52.034;5.342;2023-08-12T04:15:13;4.82;;;4.05;;
19280;SDS011;9774;52.034;5.342;2023-08-12T04:17:40;7.50;;;4.72;;
19280;SDS011;9774;52.034;5.342;2023-08-12T04:20:07;5.47;;;4.60;;
19280;SDS011;9774;52.034;5.342;2023-08-12T04:22:35;6.60;;;4.75;;
19280;SDS011;9774;52.034;5.342;2023-08-12T04:25:03;8.45;;;4.75;;
19280;SDS011;9774;52.034;5.342;2023-08-12T04:27:31;6.78;;;5.13;;
19280;SDS011;9774;52.034;5.342;2023-08-12T04:29:58;4.78;;;4.22;;
19280;SDS011;9774;52.034;5.342;2023-08-12T04:32:26;7.07;;;5.03;;
19280;SDS011;9774;52.034;5.342;2023-08-12T04:34:53;9.25;;;4.60;;
19280;SDS011;9774;52.034;5.342;2023-08-12T04:37:20;10.05;;;4.95;;
19280;SDS011;9774;52.034;5.342;2023-08-12T04:39:48;7.63;;;4.72;;
19280;SDS011;9774;52.034;5.342;2023-08-12T04:42:15;5.85;;;4.38;;
19280;SDS011;9774;52.034;5.342;2023-08-12T04:44:42;5.47;;;4.45;;
19280;SDS011;9774;52.034;5.342;2023-08-12T04:47:09;4.95;;;4.40;;
19280;SDS011;9774;52.034;5.342;2023-08-12T04:49:38;6.65;;;4.75;;
19280;SDS011;9774;52.034;5.342;2023-08-12T04:52:05;7.82;;;4.13;;
19280;SDS011;9774;52.034;5.342;2023-08-12T04:54:33;10.07;;;4.93;;
19280;SDS011;9774;52.034;5.342;2023-08-12T04:57:00;7.28;;;4.47;;
19280;SDS011;9774;52.034;5.342;2023-08-12T04:59:26;8.18;;;4.38;;
19280;SDS011;9774;52.034;5.342;2023-08-12T05:01:53;5.10;;;4.63;;
19280;SDS011;9774;52.034;5.342;2023-08-12T05:04:20;6.55;;;5.00;;
19280;SDS011;9774;52.034;5.342;2023-08-12T05:06:50;7.80;;;4.45;;
19280;SDS011;9774;52.034;5.342;2023-08-12T05:09:17;6.63;;;4.78;;
19280;SDS011;9774;52.034;5.342;2023-08-12T05:11:44;6.75;;;4.97;;
19280;SDS011;9774;52.034;5.342;2023-08-12T05:14:11;5.78;;;4.53;;
19280;SDS011;9774;52.034;5.342;2023-08-12T05:16:38;7.95;;;4.97;;
19280;SDS011;9774;52.034;5.342;2023-08-12T05:19:05;6.47;;;4.93;;
19280;SDS011;9774;52.034;5.342;2023-08-12T05:21:32;7.53;;;5.47;;
19280;SDS011;9774;52.034;5.342;2023-08-12T05:24:00;5.60;;;4.72;;
19280;SDS011;9774;52.034;5.342;2023-08-12T05:26:27;5.70;;;4.63;;
19280;SDS011;9774;52.034;5.342;2023-08-12T05:28:54;5.40;;;4.60;;
19280;SDS011;9774;52.034;5.342;2023-08-12T05:31:21;5.90;;;4.20;;
19280;SDS011;9774;52.034;5.342;2023-08-12T05:33:48;6.70;;;5.30;;
19280;SDS011;9774;52.034;5.342;2023-08-12T05:36:15;8.82;;;4.57;;
19280;SDS011;9774;52.034;5.342;2023-08-12T05:38:42;6.50;;;4.53;;
19280;SDS011;9774;52.034;5.342;2023-08-12T05:41:10;7.47;;;4.85;;
19280;SDS011;9774;52.034;5.342;2023-08-12T05:43:38;5.32;;;4.45;;
19280;SDS011;9774;52.034;5.342;2023-08-12T05:46:05;5.05;;;4.55;;
19280;SDS011;9774;52.034;5.342;2023-08-12T05:48:32;7.68;;;4.65;;
19280;SDS011;9774;52.034;5.342;2023-08-12T05:50:59;7.05;;;5.15;;
19280;SDS011;9774;52.034;5.342;2023-08-12T05:53:26;6.63;;;4.80;;
19280;SDS011;9774;52.034;5.342;2023-08-12T05:55:52;7.40;;;5.05;;
19280;SDS011;9774;52.034;5.342;2023-08-12T05:58:21;6.03;;;4.07;;
19280;SDS011;9774;52.034;5.342;2023-08-12T06:00:48;5.68;;;4.25;;
19280;SDS011;9774;52.034;5.342;2023-08-12T06:03:15;5.93;;;3.92;;
19280;SDS011;9774;52.034;5.342;2023-08-12T06:05:43;7.10;;;4.28;;
19280;SDS011;9774;52.034;5.342;2023-08-12T06:08:12;5.10;;;3.95;;
19280;SDS011;9774;52.034;5.342;2023-08-12T06:10:40;4.75;;;3.83;;
19280;SDS011;9774;52.034;5.342;2023-08-12T06:13:07;7.72;;;3.85;;
19280;SDS011;9774;52.034;5.342;2023-08-12T06:15:36;5.10;;;3.53;;
19280;SDS011;9774;52.034;5.342;2023-08-12T06:18:03;4.43;;;3.50;;
19280;SDS011;9774;52.034;5.342;2023-08-12T06:20:31;5.30;;;3.58;;
19280;SDS011;9774;52.034;5.342;2023-08-12T06:22:58;4.35;;;3.60;;
19280;SDS011;9774;52.034;5.342;2023-08-12T06:25:25;4.82;;;3.38;;
19280;SDS011;9774;52.034;5.342;2023-08-12T06:27:52;4.20;;;3.60;;
19280;SDS011;9774;52.034;5.342;2023-08-12T06:30:19;5.57;;;3.45;;
19280;SDS011;9774;52.034;5.342;2023-08-12T06:32:48;4.35;;;3.40;;
19280;SDS011;9774;52.034;5.342;2023-08-12T06:35:15;4.80;;;3.40;;
19280;SDS011;9774;52.034;5.342;2023-08-12T06:37:42;4.13;;;3.08;;
19280;SDS011;9774;52.034;5.342;2023-08-12T06:40:10;4.50;;;3.20;;
19280;SDS011;9774;52.034;5.342;2023-08-12T06:42:37;4.03;;;3.13;;
19280;SDS011;9774;52.034;5.342;2023-08-12T06:45:04;5.78;;;3.38;;
19280;SDS011;9774;52.034;5.342;2023-08-12T06:47:33;3.50;;;3.13;;
19280;SDS011;9774;52.034;5.342;2023-08-12T06:50:02;5.63;;;3.50;;
19280;SDS011;9774;52.034;5.342;2023-08-12T06:52:29;4.00;;;3.28;;
19280;SDS011;9774;52.034;5.342;2023-08-12T06:54:56;3.58;;;3.20;;
19280;SDS011;9774;52.034;5.342;2023-08-12T06:57:23;3.38;;;2.92;;
19280;SDS011;9774;52.034;5.342;2023-08-12T06:59:51;2.83;;;2.60;;
19280;SDS011;9774;52.034;5.342;2023-08-12T07:02:18;3.45;;;2.85;;
19280;SDS011;9774;52.034;5.342;2023-08-12T07:04:45;3.22;;;2.92;;
19280;SDS011;9774;52.034;5.342;2023-08-12T07:07:13;3.45;;;2.63;;
19280;SDS011;9774;52.034;5.342;2023-08-12T07:09:40;3.47;;;2.72;;
19280;SDS011;9774;52.034;5.342;2023-08-12T07:12:07;3.55;;;2.90;;
19280;SDS011;9774;52.034;5.342;2023-08-12T07:14:35;3.28;;;2.97;;
19280;SDS011;9774;52.034;5.342;2023-08-12T07:17:02;4.20;;;2.83;;
19280;SDS011;9774;52.034;5.342;2023-08-12T07:19:29;2.85;;;2.60;;
19280;SDS011;9774;52.034;5.342;2023-08-12T07:21:56;3.05;;;2.20;;
19280;SDS011;9774;52.034;5.342;2023-08-12T07:24:25;2.28;;;2.08;;
19280;SDS011;9774;52.034;5.342;2023-08-12T07:26:52;2.70;;;2.13;;
19280;SDS011;9774;52.034;5.342;2023-08-12T07:29:20;3.03;;;2.35;;
19280;SDS011;9774;52.034;5.342;2023-08-12T07:31:47;3.30;;;2.33;;
19280;SDS011;9774;52.034;5.342;2023-08-12T07:34:14;3.47;;;2.35;;
19280;SDS011;9774;52.034;5.342;2023-08-12T07:36:42;2.80;;;2.45;;
19280;SDS011;9774;52.034;5.342;2023-08-12T07:39:09;3.75;;;2.08;;
19280;SDS011;9774;52.034;5.342;2023-08-12T07:41:37;2.28;;;1.83;;
19280;SDS011;9774;52.034;5.342;2023-08-12T07:44:04;2.28;;;1.50;;
19280;SDS011;9774;52.034;5.342;2023-08-12T07:46:31;2.15;;;1.80;;
19280;SDS011;9774;52.034;5.342;2023-08-12T07:48:58;2.55;;;1.70;;
19280;SDS011;9774;52.034;5.342;2023-08-12T07:51:26;2.13;;;1.63;;
19280;SDS011;9774;52.034;5.342;2023-08-12T07:53:53;2.10;;;1.90;;
19280;SDS011;9774;52.034;5.342;2023-08-12T07:56:20;1.60;;;1.40;;
19280;SDS011;9774;52.034;5.342;2023-08-12T07:58:48;1.40;;;1.30;;
19280;SDS011;9774;52.034;5.342;2023-08-12T08:01:15;1.80;;;1.33;;
19280;SDS011;9774;52.034;5.342;2023-08-12T08:03:42;1.08;;;0.90;;
19280;SDS011;9774;52.034;5.342;2023-08-12T08:06:09;1.95;;;1.23;;
19280;SDS011;9774;52.034;5.342;2023-08-12T08:08:37;1.55;;;1.00;;
19280;SDS011;9774;52.034;5.342;2023-08-12T08:11:06;2.08;;;0.50;;
19280;SDS011;9774;52.034;5.342;2023-08-12T08:13:34;0.88;;;0.80;;
19280;SDS011;9774;52.034;5.342;2023-08-12T08:16:02;0.80;;;0.80;;
19280;SDS011;9774;52.034;5.342;2023-08-12T08:18:29;0.80;;;0.60;;
19280;SDS011;9774;52.034;5.342;2023-08-12T08:20:57;0.55;;;0.38;;
19280;SDS011;9774;52.034;5.342;2023-08-12T08:23:24;1.23;;;0.50;;
19280;SDS011;9774;52.034;5.342;2023-08-12T08:25:51;0.50;;;0.50;;
19280;SDS011;9774;52.034;5.342;2023-08-12T08:28:18;0.70;;;0.50;;
19280;SDS011;9774;52.034;5.342;2023-08-12T08:30:45;0.57;;;0.50;;
19280;SDS011;9774;52.034;5.342;2023-08-12T08:33:13;0.52;;;0.52;;
19280;SDS011;9774;52.034;5.342;2023-08-12T08:35:40;0.55;;;0.45;;
19280;SDS011;9774;52.034;5.342;2023-08-12T08:38:07;0.63;;;0.60;;
19280;SDS011;9774;52.034;5.342;2023-08-12T08:40:34;1.85;;;0.77;;
19280;SDS011;9774;52.034;5.342;2023-08-12T08:43:02;0.70;;;0.60;;
19280;SDS011;9774;52.034;5.342;2023-08-12T08:45:33;1.05;;;0.88;;
19280;SDS011;9774;52.034;5.342;2023-08-12T08:48:01;0.93;;;0.60;;
19280;SDS011;9774;52.034;5.342;2023-08-12T08:50:30;0.57;;;0.45;;
19280;SDS011;9774;52.034;5.342;2023-08-12T08:52:57;0.40;;;0.40;;
19280;SDS011;9774;52.034;5.342;2023-08-12T08:55:28;0.90;;;0.60;;
19280;SDS011;9774;52.034;5.342;2023-08-12T08:57:55;0.60;;;0.50;;
19280;SDS011;9774;52.034;5.342;2023-08-12T09:00:23;0.70;;;0.57;;
19280;SDS011;9774;52.034;5.342;2023-08-12T09:02:51;1.15;;;0.47;;
19280;SDS011;9774;52.034;5.342;2023-08-12T09:05:20;1.15;;;0.75;;
19280;SDS011;9774;52.034;5.342;2023-08-12T09:07:49;1.55;;;0.60;;
19280;SDS011;9774;52.034;5.342;2023-08-12T09:10:19;1.45;;;1.02;;
19280;SDS011;9774;52.034;5.342;2023-08-12T09:12:50;1.33;;;0.70;;
19280;SDS011;9774;52.034;5.342;2023-08-12T09:15:18;2.13;;;0.70;;
19280;SDS011;9774;52.034;5.342;2023-08-12T09:17:45;1.50;;;0.65;;
19280;SDS011;9774;52.034;5.342;2023-08-12T09:20:12;2.97;;;0.73;;
19280;SDS011;9774;52.034;5.342;2023-08-12T09:22:40;1.63;;;0.85;;
19280;SDS011;9774;52.034;5.342;2023-08-12T09:25:09;0.95;;;0.60;;
19280;SDS011;9774;52.034;5.342;2023-08-12T09:27:38;1.42;;;0.88;;
19280;SDS011;9774;52.034;5.342;2023-08-12T09:30:05;1.00;;;0.50;;
19280;SDS011;9774;52.034;5.342;2023-08-12T09:32:34;2.35;;;0.90;;
19280;SDS011;9774;52.034;5.342;2023-08-12T09:35:01;1.20;;;0.68;;
19280;SDS011;9774;52.034;5.342;2023-08-12T09:37:30;1.48;;;0.77;;
19280;SDS011;9774;52.034;5.342;2023-08-12T09:39:58;3.88;;;0.85;;
19280;SDS011;9774;52.034;5.342;2023-08-12T09:42:26;1.40;;;0.80;;
19280;SDS011;9774;52.034;5.342;2023-08-12T09:44:56;2.55;;;1.10;;
19280;SDS011;9774;52.034;5.342;2023-08-12T09:47:24;1.00;;;0.88;;
19280;SDS011;9774;52.034;5.342;2023-08-12T09:49:52;2.65;;;1.13;;
19280;SDS011;9774;52.034;5.342;2023-08-12T09:52:19;5.57;;;1.02;;
19280;SDS011;9774;52.034;5.342;2023-08-12T09:54:48;1.95;;;1.13;;
19280;SDS011;9774;52.034;5.342;2023-08-12T09:57:21;2.13;;;1.10;;
19280;SDS011;9774;52.034;5.342;2023-08-12T09:59:55;1.40;;;1.08;;
19280;SDS011;9774;52.034;5.342;2023-08-12T10:02:24;2.50;;;1.33;;
19280;SDS011;9774;52.034;5.342;2023-08-12T10:04:53;2.28;;;1.15;;
19280;SDS011;9774;52.034;5.342;2023-08-12T10:07:23;2.75;;;1.27;;
19280;SDS011;9774;52.034;5.342;2023-08-12T10:09:51;2.10;;;1.00;;
19280;SDS011;9774;52.034;5.342;2023-08-12T10:12:20;2.30;;;1.10;;
19280;SDS011;9774;52.034;5.342;2023-08-12T10:14:49;3.47;;;1.13;;
19280;SDS011;9774;52.034;5.342;2023-08-12T10:17:17;2.15;;;0.90;;
19280;SDS011;9774;52.034;5.342;2023-08-12T10:19:45;1.83;;;0.98;;
19280;SDS011;9774;52.034;5.342;2023-08-12T10:22:14;3.28;;;1.10;;
19280;SDS011;9774;52.034;5.342;2023-08-12T10:24:42;4.88;;;1.48;;
19280;SDS011;9774;52.034;5.342;2023-08-12T10:27:12;3.15;;;0.90;;
19280;SDS011;9774;52.034;5.342;2023-08-12T10:29:41;2.22;;;0.98;;
19280;SDS011;9774;52.034;5.342;2023-08-12T10:32:10;3.80;;;1.00;;
19280;SDS011;9774;52.034;5.342;2023-08-12T10:34:39;2.20;;;1.00;;
19280;SDS011;9774;52.034;5.342;2023-08-12T10:37:06;1.98;;;0.90;;
19280;SDS011;9774;52.034;5.342;2023-08-12T10:39:36;3.42;;;1.10;;
19280;SDS011;9774;52.034;5.342;2023-08-12T10:42:04;6.65;;;1.63;;
19280;SDS011;9774;52.034;5.342;2023-08-12T10:44:38;1.92;;;0.80;;
19280;SDS011;9774;52.034;5.342;2023-08-12T10:47:07;4.13;;;0.90;;
19280;SDS011;9774;52.034;5.342;2023-08-12T10:49:37;2.97;;;1.25;;
19280;SDS011;9774;52.034;5.342;2023-08-12T10:52:05;2.85;;;1.00;;
19280;SDS011;9774;52.034;5.342;2023-08-12T10:54:45;3.10;;;1.30;;
19280;SDS011;9774;52.034;5.342;2023-08-12T10:57:12;1.90;;;1.00;;
19280;SDS011;9774;52.034;5.342;2023-08-12T10:59:50;2.85;;;1.13;;
19280;SDS011;9774;52.034;5.342;2023-08-12T11:02:20;2.80;;;0.90;;
19280;SDS011;9774;52.034;5.342;2023-08-12T11:04:52;3.63;;;0.90;;
19280;SDS011;9774;52.034;5.342;2023-08-12T11:07:22;2.17;;;0.90;;
19280;SDS011;9774;52.034;5.342;2023-08-12T11:09:58;2.42;;;1.00;;
19280;SDS011;9774;52.034;5.342;2023-08-12T11:12:31;3.00;;;1.33;;
19280;SDS011;9774;52.034;5.342;2023-08-12T11:15:01;2.05;;;1.20;;
19280;SDS011;9774;52.034;5.342;2023-08-12T11:17:33;4.50;;;2.03;;
19280;SDS011;9774;52.034;5.342;2023-08-12T11:20:02;3.03;;;1.05;;
19280;SDS011;9774;52.034;5.342;2023-08-12T11:22:32;2.55;;;1.33;;
19280;SDS011;9774;52.034;5.342;2023-08-12T11:25:02;4.53;;;1.35;;
19280;SDS011;9774;52.034;5.342;2023-08-12T11:27:40;2.97;;;0.90;;
19280;SDS011;9774;52.034;5.342;2023-08-12T11:30:09;3.00;;;1.10;;
19280;SDS011;9774;52.034;5.342;2023-08-12T11:32:39;1.85;;;1.10;;
19280;SDS011;9774;52.034;5.342;2023-08-12T11:35:07;3.47;;;1.05;;
19280;SDS011;9774;52.034;5.342;2023-08-12T11:37:37;2.40;;;1.13;;
19280;SDS011;9774;52.034;5.342;2023-08-12T11:40:06;2.08;;;0.88;;
19280;SDS011;9774;52.034;5.342;2023-08-12T11:42:35;1.77;;;0.73;;
19280;SDS011;9774;52.034;5.342;2023-08-12T11:45:03;2.45;;;0.70;;
19280;SDS011;9774;52.034;5.342;2023-08-12T11:47:30;3.40;;;0.98;;
19280;SDS011;9774;52.034;5.342;2023-08-12T11:49:59;1.42;;;0.95;;
19280;SDS011;9774;52.034;5.342;2023-08-12T11:52:28;3.42;;;1.25;;
19280;SDS011;9774;52.034;5.342;2023-08-12T11:54:56;2.58;;;0.95;;
19280;SDS011;9774;52.034;5.342;2023-08-12T11:57:24;6.75;;;1.02;;
19280;SDS011;9774;52.034;5.342;2023-08-12T11:59:53;1.95;;;0.90;;
19280;SDS011;9774;52.034;5.342;2023-08-12T12:02:24;3.97;;;1.17;;
19280;SDS011;9774;52.034;5.342;2023-08-12T12:04:51;2.75;;;1.00;;
19280;SDS011;9774;52.034;5.342;2023-08-12T12:07:21;3.45;;;0.90;;
19280;SDS011;9774;52.034;5.342;2023-08-12T12:09:50;5.13;;;1.45;;
19280;SDS011;9774;52.034;5.342;2023-08-12T12:12:18;3.50;;;0.90;;
19280;SDS011;9774;52.034;5.342;2023-08-12T12:14:48;3.25;;;0.90;;
19280;SDS011;9774;52.034;5.342;2023-08-12T12:17:17;7.55;;;1.65;;
19280;SDS011;9774;52.034;5.342;2023-08-12T12:19:47;5.38;;;0.93;;
19280;SDS011;9774;52.034;5.342;2023-08-12T12:22:18;2.00;;;1.00;;
19280;SDS011;9774;52.034;5.342;2023-08-12T12:24:53;1.95;;;0.80;;
19280;SDS011;9774;52.034;5.342;2023-08-12T12:27:23;3.67;;;1.08;;
19280;SDS011;9774;52.034;5.342;2023-08-12T12:29:51;1.73;;;1.10;;
19280;SDS011;9774;52.034;5.342;2023-08-12T12:32:18;1.65;;;0.68;;
19280;SDS011;9774;52.034;5.342;2023-08-12T12:34:45;4.15;;;1.17;;
19280;SDS011;9774;52.034;5.342;2023-08-12T12:37:12;5.45;;;1.20;;
19280;SDS011;9774;52.034;5.342;2023-08-12T12:39:41;2.10;;;0.82;;
19280;SDS011;9774;52.034;5.342;2023-08-12T12:42:08;2.28;;;1.15;;
19280;SDS011;9774;52.034;5.342;2023-08-12T12:44:36;3.40;;;1.50;;
19280;SDS011;9774;52.034;5.342;2023-08-12T12:47:03;3.50;;;1.55;;
19280;SDS011;9774;52.034;5.342;2023-08-12T12:49:31;3.05;;;1.25;;
19280;SDS011;9774;52.034;5.342;2023-08-12T12:51:58;3.50;;;1.30;;
19280;SDS011;9774;52.034;5.342;2023-08-12T12:54:25;3.97;;;1.05;;
19280;SDS011;9774;52.034;5.342;2023-08-12T12:56:54;6.43;;;1.65;;
19280;SDS011;9774;52.034;5.342;2023-08-12T12:59:21;2.72;;;0.90;;
19280;SDS011;9774;52.034;5.342;2023-08-12T13:01:48;4.90;;;1.25;;
19280;SDS011;9774;52.034;5.342;2023-08-12T13:04:15;2.63;;;1.20;;
19280;SDS011;9774;52.034;5.342;2023-08-12T13:06:42;5.15;;;1.52;;
19280;SDS011;9774;52.034;5.342;2023-08-12T13:09:09;35.40;;;3.72;;
19280;SDS011;9774;52.034;5.342;2023-08-12T13:11:36;3.55;;;1.02;;
19280;SDS011;9774;52.034;5.342;2023-08-12T13:14:04;2.90;;;1.02;;
19280;SDS011;9774;52.034;5.342;2023-08-12T13:16:31;3.53;;;1.25;;
19280;SDS011;9774;52.034;5.342;2023-08-12T13:18:58;1.55;;;0.98;;
19280;SDS011;9774;52.034;5.342;2023-08-12T13:21:25;3.17;;;1.30;;
19280;SDS011;9774;52.034;5.342;2023-08-12T13:23:53;3.35;;;1.05;;
19280;SDS011;9774;52.034;5.342;2023-08-12T13:26:21;1.25;;;1.02;;
19280;SDS011;9774;52.034;5.342;2023-08-12T13:28:48;3.28;;;1.30;;
19280;SDS011;9774;52.034;5.342;2023-08-12T13:31:16;1.95;;;0.93;;
19280;SDS011;9774;52.034;5.342;2023-08-12T13:33:43;3.60;;;1.63;;
19280;SDS011;9774;52.034;5.342;2023-08-12T13:36:11;5.72;;;1.95;;
19280;SDS011;9774;52.034;5.342;2023-08-12T13:38:38;2.42;;;1.33;;
19280;SDS011;9774;52.034;5.342;2023-08-12T13:41:05;2.53;;;1.25;;
19280;SDS011;9774;52.034;5.342;2023-08-12T13:43:32;4.00;;;1.58;;
19280;SDS011;9774;52.034;5.342;2023-08-12T13:46:00;2.42;;;1.38;;
19280;SDS011;9774;52.034;5.342;2023-08-12T13:48:28;2.58;;;1.60;;
19280;SDS011;9774;52.034;5.342;2023-08-12T13:50:55;4.40;;;1.95;;
19280;SDS011;9774;52.034;5.342;2023-08-12T13:53:22;4.20;;;1.63;;
19280;SDS011;9774;52.034;5.342;2023-08-12T13:55:50;2.92;;;1.30;;
19280;SDS011;9774;52.034;5.342;2023-08-12T13:58:18;3.35;;;1.30;;
19280;SDS011;9774;52.034;5.342;2023-08-12T14:00:45;2.55;;;1.10;;
19280;SDS011;9774;52.034;5.342;2023-08-12T14:03:12;3.78;;;1.27;;
19280;SDS011;9774;52.034;5.342;2023-08-12T14:05:41;2.17;;;1.10;;
19280;SDS011;9774;52.034;5.342;2023-08-12T14:08:08;4.05;;;1.55;;
19280;SDS011;9774;52.034;5.342;2023-08-12T14:10:35;3.05;;;1.23;;
19280;SDS011;9774;52.034;5.342;2023-08-12T14:13:02;4.57;;;1.42;;
19280;SDS011;9774;52.034;5.342;2023-08-12T14:15:31;1.92;;;0.93;;
19280;SDS011;9774;52.034;5.342;2023-08-12T14:17:58;2.13;;;1.23;;
19280;SDS011;9774;52.034;5.342;2023-08-12T14:20:25;4.28;;;1.25;;
19280;SDS011;9774;52.034;5.342;2023-08-12T14:22:54;5.68;;;1.80;;
19280;SDS011;9774;52.034;5.342;2023-08-12T14:25:21;2.42;;;1.17;;
19280;SDS011;9774;52.034;5.342;2023-08-12T14:27:48;6.30;;;1.38;;
19280;SDS011;9774;52.034;5.342;2023-08-12T14:30:17;6.82;;;1.42;;
19280;SDS011;9774;52.034;5.342;2023-08-12T14:32:45;3.13;;;1.10;;
19280;SDS011;9774;52.034;5.342;2023-08-12T14:35:12;4.65;;;1.67;;
19280;SDS011;9774;52.034;5.342;2023-08-12T14:37:39;2.65;;;1.17;;
19280;SDS011;9774;52.034;5.342;2023-08-12T14:40:08;5.85;;;1.15;;
19280;SDS011;9774;52.034;5.342;2023-08-12T14:42:36;4.03;;;1.25;;
19280;SDS011;9774;52.034;5.342;2023-08-12T14:45:03;3.22;;;1.05;;
19280;SDS011;9774;52.034;5.342;2023-08-12T14:47:31;3.92;;;1.45;;
19280;SDS011;9774;52.034;5.342;2023-08-12T14:49:58;2.33;;;1.02;;
19280;SDS011;9774;52.034;5.342;2023-08-12T14:52:25;4.70;;;1.30;;
19280;SDS011;9774;52.034;5.342;2023-08-12T14:54:52;8.45;;;1.65;;
19280;SDS011;9774;52.034;5.342;2023-08-12T14:57:21;2.83;;;1.25;;
19280;SDS011;9774;52.034;5.342;2023-08-12T14:59:48;4.47;;;1.77;;
19280;SDS011;9774;52.034;5.342;2023-08-12T15:02:15;7.43;;;1.40;;
19280;SDS011;9774;52.034;5.342;2023-08-12T15:04:43;3.33;;;1.35;;